Yona, Guam
Current Conditions -  °F | °C
As of 6:54 PM on Wednesday 26 Nov 2014 (Local Time) from PGUM Reporting Station
Clear Clear  
Wind Chill: 83°   Ceiling: Unl
Heat Index: 89°   Visibility: 10mi
Dew Point: 74°   Wind: 9mph
Humidity: 74%   Direction: 60°ENE
Pressure: 29.85"   Gusts: NA
Location:  13.41°N, 144.77°E
Report Text: PGUM 260854Z 06008KT 10SM CLR 28/23 A2985 RMK AO2 SLP098 T02830233 53015
Loading
Personal Weather Stations






























Interactive Weather Map New forecast layout! Learn more

10-Day Weather Forecast

Advertisements
Track Severe Weather on mobile